sensor_id;sensor_type;location;lat;lon;timestamp;P1;durP1;ratioP1;P2;durP2;ratioP2
58071;SDS011;60383;46.626;18.866;2023-06-10T00:01:24;4.68;;;2.95;;
58071;SDS011;60383;46.626;18.866;2023-06-10T00:03:50;3.47;;;2.90;;
58071;SDS011;60383;46.626;18.866;2023-06-10T00:06:17;3.85;;;2.60;;
58071;SDS011;60383;46.626;18.866;2023-06-10T00:08:43;3.65;;;2.65;;
58071;SDS011;60383;46.626;18.866;2023-06-10T00:11:08;5.18;;;3.70;;
58071;SDS011;60383;46.626;18.866;2023-06-10T00:13:34;4.70;;;3.03;;
58071;SDS011;60383;46.626;18.866;2023-06-10T00:16:00;4.45;;;3.20;;
58071;SDS011;60383;46.626;18.866;2023-06-10T00:18:26;3.55;;;3.10;;
58071;SDS011;60383;46.626;18.866;2023-06-10T00:20:52;5.40;;;3.15;;
58071;SDS011;60383;46.626;18.866;2023-06-10T00:23:20;4.18;;;3.33;;
58071;SDS011;60383;46.626;18.866;2023-06-10T00:25:46;3.53;;;2.97;;
58071;SDS011;60383;46.626;18.866;2023-06-10T00:28:12;4.70;;;3.15;;
58071;SDS011;60383;46.626;18.866;2023-06-10T00:30:38;3.85;;;2.55;;
58071;SDS011;60383;46.626;18.866;2023-06-10T00:33:04;4.03;;;2.90;;
58071;SDS011;60383;46.626;18.866;2023-06-10T00:35:29;4.03;;;2.72;;
58071;SDS011;60383;46.626;18.866;2023-06-10T00:37:55;4.95;;;2.83;;
58071;SDS011;60383;46.626;18.866;2023-06-10T00:40:21;4.85;;;3.40;;
58071;SDS011;60383;46.626;18.866;2023-06-10T00:42:46;4.72;;;3.35;;
58071;SDS011;60383;46.626;18.866;2023-06-10T00:45:12;4.03;;;2.85;;
58071;SDS011;60383;46.626;18.866;2023-06-10T00:47:37;3.58;;;2.80;;
58071;SDS011;60383;46.626;18.866;2023-06-10T00:50:04;3.55;;;2.97;;
58071;SDS011;60383;46.626;18.866;2023-06-10T00:52:31;4.90;;;3.55;;
58071;SDS011;60383;46.626;18.866;2023-06-10T00:54:57;5.05;;;3.47;;
58071;SDS011;60383;46.626;18.866;2023-06-10T00:57:24;5.43;;;3.13;;
58071;SDS011;60383;46.626;18.866;2023-06-10T00:59:50;4.40;;;3.17;;
58071;SDS011;60383;46.626;18.866;2023-06-10T01:02:16;5.10;;;3.20;;
58071;SDS011;60383;46.626;18.866;2023-06-10T01:04:41;3.88;;;3.20;;
58071;SDS011;60383;46.626;18.866;2023-06-10T01:07:28;4.35;;;3.45;;
58071;SDS011;60383;46.626;18.866;2023-06-10T01:12:33;5.47;;;3.40;;
58071;SDS011;60383;46.626;18.866;2023-06-10T01:15:04;4.88;;;2.92;;
58071;SDS011;60383;46.626;18.866;2023-06-10T01:17:30;5.65;;;3.42;;
58071;SDS011;60383;46.626;18.866;2023-06-10T01:19:56;6.88;;;3.28;;
58071;SDS011;60383;46.626;18.866;2023-06-10T01:22:26;4.05;;;3.13;;
58071;SDS011;60383;46.626;18.866;2023-06-10T01:24:57;4.40;;;3.17;;
58071;SDS011;60383;46.626;18.866;2023-06-10T01:27:26;3.80;;;2.97;;
58071;SDS011;60383;46.626;18.866;2023-06-10T01:29:58;3.55;;;2.80;;
58071;SDS011;60383;46.626;18.866;2023-06-10T01:32:33;4.10;;;3.28;;
58071;SDS011;60383;46.626;18.866;2023-06-10T01:35:02;5.47;;;3.55;;
58071;SDS011;60383;46.626;18.866;2023-06-10T01:37:30;3.47;;;2.85;;
58071;SDS011;60383;46.626;18.866;2023-06-10T01:39:57;4.90;;;3.10;;
58071;SDS011;60383;46.626;18.866;2023-06-10T01:42:24;4.45;;;3.22;;
58071;SDS011;60383;46.626;18.866;2023-06-10T01:44:50;4.03;;;2.78;;
58071;SDS011;60383;46.626;18.866;2023-06-10T01:47:16;4.00;;;2.90;;
58071;SDS011;60383;46.626;18.866;2023-06-10T01:49:42;4.15;;;3.30;;
58071;SDS011;60383;46.626;18.866;2023-06-10T01:52:08;4.80;;;2.70;;
58071;SDS011;60383;46.626;18.866;2023-06-10T01:54:34;6.15;;;3.20;;
58071;SDS011;60383;46.626;18.866;2023-06-10T01:57:00;6.00;;;3.08;;
58071;SDS011;60383;46.626;18.866;2023-06-10T01:59:26;4.82;;;3.47;;
58071;SDS011;60383;46.626;18.866;2023-06-10T02:01:52;3.95;;;3.25;;
58071;SDS011;60383;46.626;18.866;2023-06-10T02:04:17;7.07;;;3.97;;
58071;SDS011;60383;46.626;18.866;2023-06-10T02:06:43;4.85;;;3.45;;
58071;SDS011;60383;46.626;18.866;2023-06-10T02:09:10;5.63;;;3.63;;
58071;SDS011;60383;46.626;18.866;2023-06-10T02:11:35;5.00;;;3.45;;
58071;SDS011;60383;46.626;18.866;2023-06-10T02:14:01;7.53;;;3.88;;
58071;SDS011;60383;46.626;18.866;2023-06-10T02:16:26;6.72;;;3.67;;
58071;SDS011;60383;46.626;18.866;2023-06-10T02:18:52;7.38;;;3.70;;
58071;SDS011;60383;46.626;18.866;2023-06-10T02:21:17;6.35;;;3.50;;
58071;SDS011;60383;46.626;18.866;2023-06-10T02:23:43;7.10;;;3.92;;
58071;SDS011;60383;46.626;18.866;2023-06-10T02:26:08;6.95;;;4.43;;
58071;SDS011;60383;46.626;18.866;2023-06-10T02:28:34;7.13;;;4.55;;
58071;SDS011;60383;46.626;18.866;2023-06-10T02:30:59;5.15;;;3.47;;
58071;SDS011;60383;46.626;18.866;2023-06-10T02:33:25;8.40;;;3.90;;
58071;SDS011;60383;46.626;18.866;2023-06-10T02:35:52;4.90;;;3.58;;
58071;SDS011;60383;46.626;18.866;2023-06-10T02:38:17;6.25;;;4.15;;
58071;SDS011;60383;46.626;18.866;2023-06-10T02:40:43;6.78;;;3.90;;
58071;SDS011;60383;46.626;18.866;2023-06-10T02:43:08;5.75;;;3.60;;
58071;SDS011;60383;46.626;18.866;2023-06-10T02:45:34;6.78;;;4.25;;
58071;SDS011;60383;46.626;18.866;2023-06-10T02:48:00;7.15;;;4.40;;
58071;SDS011;60383;46.626;18.866;2023-06-10T02:50:26;6.32;;;4.00;;
58071;SDS011;60383;46.626;18.866;2023-06-10T02:52:51;5.90;;;4.15;;
58071;SDS011;60383;46.626;18.866;2023-06-10T02:55:18;5.78;;;4.45;;
58071;SDS011;60383;46.626;18.866;2023-06-10T02:57:43;5.93;;;4.07;;
58071;SDS011;60383;46.626;18.866;2023-06-10T03:00:09;6.03;;;4.28;;
58071;SDS011;60383;46.626;18.866;2023-06-10T03:02:36;6.90;;;4.32;;
58071;SDS011;60383;46.626;18.866;2023-06-10T03:05:04;5.38;;;3.65;;
58071;SDS011;60383;46.626;18.866;2023-06-10T03:07:30;8.73;;;4.20;;
58071;SDS011;60383;46.626;18.866;2023-06-10T03:09:56;5.93;;;3.78;;
58071;SDS011;60383;46.626;18.866;2023-06-10T03:12:21;6.63;;;4.10;;
58071;SDS011;60383;46.626;18.866;2023-06-10T03:14:47;5.38;;;3.58;;
58071;SDS011;60383;46.626;18.866;2023-06-10T03:17:12;5.90;;;4.00;;
58071;SDS011;60383;46.626;18.866;2023-06-10T03:19:38;7.78;;;4.07;;
58071;SDS011;60383;46.626;18.866;2023-06-10T03:22:08;5.65;;;3.60;;
58071;SDS011;60383;46.626;18.866;2023-06-10T03:24:35;5.75;;;3.70;;
58071;SDS011;60383;46.626;18.866;2023-06-10T03:27:01;6.28;;;4.13;;
58071;SDS011;60383;46.626;18.866;2023-06-10T03:29:30;5.85;;;3.63;;
58071;SDS011;60383;46.626;18.866;2023-06-10T03:31:55;5.60;;;3.83;;
58071;SDS011;60383;46.626;18.866;2023-06-10T03:34:21;8.70;;;4.82;;
58071;SDS011;60383;46.626;18.866;2023-06-10T03:36:48;6.63;;;4.78;;
58071;SDS011;60383;46.626;18.866;2023-06-10T03:39:15;6.55;;;4.30;;
58071;SDS011;60383;46.626;18.866;2023-06-10T03:41:41;7.22;;;4.95;;
58071;SDS011;60383;46.626;18.866;2023-06-10T03:44:06;6.78;;;4.38;;
58071;SDS011;60383;46.626;18.866;2023-06-10T03:46:32;8.45;;;4.55;;
58071;SDS011;60383;46.626;18.866;2023-06-10T03:48:57;5.90;;;3.97;;
58071;SDS011;60383;46.626;18.866;2023-06-10T03:51:25;6.20;;;4.18;;
58071;SDS011;60383;46.626;18.866;2023-06-10T03:53:51;7.75;;;3.80;;
58071;SDS011;60383;46.626;18.866;2023-06-10T03:56:17;5.63;;;4.10;;
58071;SDS011;60383;46.626;18.866;2023-06-10T03:58:42;10.60;;;4.65;;
58071;SDS011;60383;46.626;18.866;2023-06-10T04:01:08;8.05;;;4.90;;
58071;SDS011;60383;46.626;18.866;2023-06-10T04:03:33;7.35;;;4.45;;
58071;SDS011;60383;46.626;18.866;2023-06-10T04:05:59;9.88;;;4.63;;
58071;SDS011;60383;46.626;18.866;2023-06-10T04:08:25;6.20;;;4.47;;
58071;SDS011;60383;46.626;18.866;2023-06-10T04:10:50;7.03;;;4.50;;
58071;SDS011;60383;46.626;18.866;2023-06-10T04:13:16;6.72;;;4.20;;
58071;SDS011;60383;46.626;18.866;2023-06-10T04:15:42;6.82;;;4.80;;
58071;SDS011;60383;46.626;18.866;2023-06-10T04:18:07;10.63;;;5.15;;
58071;SDS011;60383;46.626;18.866;2023-06-10T04:20:33;9.63;;;5.20;;
58071;SDS011;60383;46.626;18.866;2023-06-10T04:22:59;10.65;;;5.18;;
58071;SDS011;60383;46.626;18.866;2023-06-10T04:25:24;9.38;;;5.40;;
58071;SDS011;60383;46.626;18.866;2023-06-10T04:27:51;7.25;;;4.97;;
58071;SDS011;60383;46.626;18.866;2023-06-10T04:30:16;7.15;;;4.70;;
58071;SDS011;60383;46.626;18.866;2023-06-10T04:32:43;7.68;;;5.75;;
58071;SDS011;60383;46.626;18.866;2023-06-10T04:35:11;9.60;;;5.50;;
58071;SDS011;60383;46.626;18.866;2023-06-10T04:37:37;9.50;;;5.97;;
58071;SDS011;60383;46.626;18.866;2023-06-10T04:40:02;6.78;;;4.75;;
58071;SDS011;60383;46.626;18.866;2023-06-10T04:42:28;6.65;;;4.80;;
58071;SDS011;60383;46.626;18.866;2023-06-10T04:44:53;8.32;;;4.43;;
58071;SDS011;60383;46.626;18.866;2023-06-10T04:47:19;8.32;;;5.28;;
58071;SDS011;60383;46.626;18.866;2023-06-10T04:49:45;8.48;;;4.97;;
58071;SDS011;60383;46.626;18.866;2023-06-10T04:52:10;8.00;;;5.28;;
58071;SDS011;60383;46.626;18.866;2023-06-10T04:54:36;6.95;;;4.20;;
58071;SDS011;60383;46.626;18.866;2023-06-10T04:57:01;7.97;;;5.03;;
58071;SDS011;60383;46.626;18.866;2023-06-10T04:59:27;10.95;;;5.60;;
58071;SDS011;60383;46.626;18.866;2023-06-10T05:01:53;8.52;;;5.20;;
58071;SDS011;60383;46.626;18.866;2023-06-10T05:04:19;7.28;;;4.93;;
58071;SDS011;60383;46.626;18.866;2023-06-10T05:06:45;8.65;;;5.32;;
58071;SDS011;60383;46.626;18.866;2023-06-10T05:09:11;10.38;;;6.05;;
58071;SDS011;60383;46.626;18.866;2023-06-10T05:11:36;7.90;;;5.22;;
58071;SDS011;60383;46.626;18.866;2023-06-10T05:14:02;8.25;;;4.60;;
58071;SDS011;60383;46.626;18.866;2023-06-10T05:16:27;8.27;;;4.90;;
58071;SDS011;60383;46.626;18.866;2023-06-10T05:18:52;7.45;;;5.10;;
58071;SDS011;60383;46.626;18.866;2023-06-10T05:21:18;8.68;;;5.35;;
58071;SDS011;60383;46.626;18.866;2023-06-10T05:23:44;8.85;;;5.90;;
58071;SDS011;60383;46.626;18.866;2023-06-10T05:26:09;10.02;;;6.05;;
58071;SDS011;60383;46.626;18.866;2023-06-10T05:28:35;12.05;;;6.15;;
58071;SDS011;60383;46.626;18.866;2023-06-10T05:31:01;12.20;;;7.75;;
58071;SDS011;60383;46.626;18.866;2023-06-10T05:33:26;13.85;;;8.35;;
58071;SDS011;60383;46.626;18.866;2023-06-10T05:35:52;14.35;;;8.60;;
58071;SDS011;60383;46.626;18.866;2023-06-10T05:38:18;13.60;;;8.52;;
58071;SDS011;60383;46.626;18.866;2023-06-10T05:40:43;17.48;;;9.57;;
58071;SDS011;60383;46.626;18.866;2023-06-10T05:43:09;16.88;;;10.70;;
58071;SDS011;60383;46.626;18.866;2023-06-10T05:45:35;19.40;;;11.40;;
58071;SDS011;60383;46.626;18.866;2023-06-10T05:48:02;20.52;;;11.50;;
58071;SDS011;60383;46.626;18.866;2023-06-10T05:50:27;19.27;;;10.90;;
58071;SDS011;60383;46.626;18.866;2023-06-10T05:52:53;14.25;;;9.10;;
58071;SDS011;60383;46.626;18.866;2023-06-10T05:55:20;21.00;;;11.40;;
58071;SDS011;60383;46.626;18.866;2023-06-10T05:57:45;17.60;;;10.60;;
58071;SDS011;60383;46.626;18.866;2023-06-10T06:00:11;21.02;;;10.90;;
58071;SDS011;60383;46.626;18.866;2023-06-10T06:02:37;18.80;;;11.32;;
58071;SDS011;60383;46.626;18.866;2023-06-10T06:05:02;17.25;;;10.70;;
58071;SDS011;60383;46.626;18.866;2023-06-10T06:07:28;17.92;;;10.98;;
58071;SDS011;60383;46.626;18.866;2023-06-10T06:09:53;18.63;;;10.60;;
58071;SDS011;60383;46.626;18.866;2023-06-10T06:12:19;17.45;;;10.88;;
58071;SDS011;60383;46.626;18.866;2023-06-10T06:14:45;16.10;;;10.48;;
58071;SDS011;60383;46.626;18.866;2023-06-10T06:17:10;16.95;;;10.45;;
58071;SDS011;60383;46.626;18.866;2023-06-10T06:19:36;18.15;;;11.88;;
58071;SDS011;60383;46.626;18.866;2023-06-10T06:22:01;18.08;;;11.02;;
58071;SDS011;60383;46.626;18.866;2023-06-10T06:24:27;16.98;;;10.73;;
58071;SDS011;60383;46.626;18.866;2023-06-10T06:26:53;19.10;;;11.13;;
58071;SDS011;60383;46.626;18.866;2023-06-10T06:29:18;17.52;;;9.73;;
58071;SDS011;60383;46.626;18.866;2023-06-10T06:31:44;17.88;;;11.10;;
58071;SDS011;60383;46.626;18.866;2023-06-10T06:34:09;15.50;;;9.57;;
58071;SDS011;60383;46.626;18.866;2023-06-10T06:36:35;17.58;;;10.60;;
58071;SDS011;60383;46.626;18.866;2023-06-10T06:39:00;17.67;;;10.65;;
58071;SDS011;60383;46.626;18.866;2023-06-10T06:41:26;17.63;;;10.10;;
58071;SDS011;60383;46.626;18.866;2023-06-10T06:43:53;16.70;;;9.65;;
58071;SDS011;60383;46.626;18.866;2023-06-10T06:46:19;18.60;;;10.10;;
58071;SDS011;60383;46.626;18.866;2023-06-10T06:48:44;15.45;;;9.25;;
58071;SDS011;60383;46.626;18.866;2023-06-10T06:51:10;14.45;;;8.82;;
58071;SDS011;60383;46.626;18.866;2023-06-10T06:53:35;15.23;;;9.55;;
58071;SDS011;60383;46.626;18.866;2023-06-10T06:56:01;15.43;;;9.70;;
58071;SDS011;60383;46.626;18.866;2023-06-10T06:58:28;14.07;;;8.45;;
58071;SDS011;60383;46.626;18.866;2023-06-10T07:00:53;13.45;;;8.73;;
58071;SDS011;60383;46.626;18.866;2023-06-10T07:03:19;11.93;;;7.93;;
58071;SDS011;60383;46.626;18.866;2023-06-10T07:05:44;15.45;;;8.98;;
58071;SDS011;60383;46.626;18.866;2023-06-10T07:08:10;11.27;;;7.93;;
58071;SDS011;60383;46.626;18.866;2023-06-10T07:10:37;16.15;;;10.07;;
58071;SDS011;60383;46.626;18.866;2023-06-10T07:13:02;15.90;;;11.30;;
58071;SDS011;60383;46.626;18.866;2023-06-10T07:15:28;16.55;;;10.93;;
58071;SDS011;60383;46.626;18.866;2023-06-10T07:17:53;17.98;;;11.88;;
58071;SDS011;60383;46.626;18.866;2023-06-10T07:20:20;16.02;;;11.00;;
58071;SDS011;60383;46.626;18.866;2023-06-10T07:22:46;18.00;;;11.43;;
58071;SDS011;60383;46.626;18.866;2023-06-10T07:25:11;13.57;;;9.70;;
58071;SDS011;60383;46.626;18.866;2023-06-10T07:27:37;12.73;;;8.80;;
58071;SDS011;60383;46.626;18.866;2023-06-10T07:30:03;14.63;;;8.73;;
58071;SDS011;60383;46.626;18.866;2023-06-10T07:32:31;10.48;;;8.07;;
58071;SDS011;60383;46.626;18.866;2023-06-10T07:34:56;16.52;;;8.80;;
58071;SDS011;60383;46.626;18.866;2023-06-10T07:37:22;13.32;;;8.85;;
58071;SDS011;60383;46.626;18.866;2023-06-10T07:39:48;13.35;;;8.38;;
58071;SDS011;60383;46.626;18.866;2023-06-10T07:42:13;12.77;;;8.05;;
58071;SDS011;60383;46.626;18.866;2023-06-10T07:44:39;14.00;;;9.30;;
58071;SDS011;60383;46.626;18.866;2023-06-10T07:47:04;13.10;;;8.70;;
58071;SDS011;60383;46.626;18.866;2023-06-10T07:49:30;12.02;;;8.68;;
58071;SDS011;60383;46.626;18.866;2023-06-10T07:51:55;15.55;;;8.88;;
58071;SDS011;60383;46.626;18.866;2023-06-10T07:54:21;11.23;;;7.95;;
58071;SDS011;60383;46.626;18.866;2023-06-10T07:56:47;13.25;;;8.63;;
58071;SDS011;60383;46.626;18.866;2023-06-10T07:59:13;11.10;;;8.35;;
58071;SDS011;60383;46.626;18.866;2023-06-10T08:01:38;12.43;;;8.30;;
58071;SDS011;60383;46.626;18.866;2023-06-10T08:04:04;11.23;;;7.55;;
58071;SDS011;60383;46.626;18.866;2023-06-10T08:06:30;10.68;;;7.32;;
58071;SDS011;60383;46.626;18.866;2023-06-10T08:08:56;15.45;;;7.82;;
58071;SDS011;60383;46.626;18.866;2023-06-10T08:11:21;12.13;;;7.45;;
58071;SDS011;60383;46.626;18.866;2023-06-10T08:13:47;9.40;;;6.45;;
58071;SDS011;60383;46.626;18.866;2023-06-10T08:16:12;11.25;;;7.13;;
58071;SDS011;60383;46.626;18.866;2023-06-10T08:18:38;9.63;;;6.43;;
58071;SDS011;60383;46.626;18.866;2023-06-10T08:21:03;6.78;;;5.13;;
58071;SDS011;60383;46.626;18.866;2023-06-10T08:23:29;6.43;;;4.35;;
58071;SDS011;60383;46.626;18.866;2023-06-10T08:25:55;5.35;;;3.92;;
58071;SDS011;60383;46.626;18.866;2023-06-10T08:28:20;5.35;;;4.15;;
58071;SDS011;60383;46.626;18.866;2023-06-10T08:30:46;4.47;;;3.45;;
58071;SDS011;60383;46.626;18.866;2023-06-10T08:33:11;4.85;;;3.65;;
58071;SDS011;60383;46.626;18.866;2023-06-10T08:35:37;4.78;;;3.65;;
58071;SDS011;60383;46.626;18.866;2023-06-10T08:38:02;5.43;;;3.88;;
58071;SDS011;60383;46.626;18.866;2023-06-10T08:40:27;5.53;;;3.92;;
58071;SDS011;60383;46.626;18.866;2023-06-10T08:43:00;5.18;;;3.55;;
58071;SDS011;60383;46.626;18.866;2023-06-10T08:45:31;4.30;;;3.45;;
58071;SDS011;60383;46.626;18.866;2023-06-10T08:48:00;3.95;;;3.05;;
58071;SDS011;60383;46.626;18.866;2023-06-10T08:50:31;4.90;;;3.25;;
58071;SDS011;60383;46.626;18.866;2023-06-10T08:53:02;4.20;;;2.88;;
58071;SDS011;60383;46.626;18.866;2023-06-10T08:55:31;5.15;;;3.10;;
58071;SDS011;60383;46.626;18.866;2023-06-10T08:58:00;3.85;;;2.90;;
58071;SDS011;60383;46.626;18.866;2023-06-10T09:00:27;4.65;;;2.70;;
58071;SDS011;60383;46.626;18.866;2023-06-10T09:02:54;4.10;;;2.95;;
58071;SDS011;60383;46.626;18.866;2023-06-10T09:05:20;4.13;;;2.63;;
58071;SDS011;60383;46.626;18.866;2023-06-10T09:07:48;3.00;;;2.70;;
58071;SDS011;60383;46.626;18.866;2023-06-10T09:10:14;3.10;;;2.80;;
58071;SDS011;60383;46.626;18.866;2023-06-10T09:12:40;2.78;;;2.28;;
58071;SDS011;60383;46.626;18.866;2023-06-10T09:15:06;2.90;;;2.55;;
58071;SDS011;60383;46.626;18.866;2023-06-10T09:17:32;3.05;;;2.50;;
58071;SDS011;60383;46.626;18.866;2023-06-10T09:19:59;3.20;;;2.50;;
58071;SDS011;60383;46.626;18.866;2023-06-10T09:22:27;2.55;;;2.35;;
58071;SDS011;60383;46.626;18.866;2023-06-10T09:25:14;2.80;;;2.17;;
58071;SDS011;60383;46.626;18.866;2023-06-10T09:27:46;3.42;;;2.80;;
58071;SDS011;60383;46.626;18.866;2023-06-10T09:30:28;4.10;;;2.80;;
58071;SDS011;60383;46.626;18.866;2023-06-10T09:32:56;2.67;;;2.40;;
58071;SDS011;60383;46.626;18.866;2023-06-10T09:35:23;2.83;;;2.33;;
58071;SDS011;60383;46.626;18.866;2023-06-10T09:37:53;2.95;;;2.63;;
58071;SDS011;60383;46.626;18.866;2023-06-10T09:40:20;2.47;;;2.10;;
58071;SDS011;60383;46.626;18.866;2023-06-10T09:42:46;2.83;;;2.33;;
58071;SDS011;60383;46.626;18.866;2023-06-10T09:45:18;2.45;;;2.25;;
58071;SDS011;60383;46.626;18.866;2023-06-10T09:47:45;3.67;;;2.30;;
58071;SDS011;60383;46.626;18.866;2023-06-10T09:50:12;3.42;;;2.28;;
58071;SDS011;60383;46.626;18.866;2023-06-10T09:52:37;3.22;;;2.40;;
58071;SDS011;60383;46.626;18.866;2023-06-10T09:55:04;3.40;;;2.67;;
58071;SDS011;60383;46.626;18.866;2023-06-10T09:57:32;11.55;;;4.82;;
58071;SDS011;60383;46.626;18.866;2023-06-10T09:59:59;4.90;;;3.17;;
58071;SDS011;60383;46.626;18.866;2023-06-10T10:02:28;7.65;;;3.90;;
58071;SDS011;60383;46.626;18.866;2023-06-10T10:04:59;3.50;;;2.45;;
58071;SDS011;60383;46.626;18.866;2023-06-10T10:07:29;6.78;;;2.75;;
58071;SDS011;60383;46.626;18.866;2023-06-10T10:09:54;3.80;;;2.75;;
58071;SDS011;60383;46.626;18.866;2023-06-10T10:12:20;6.97;;;4.90;;
58071;SDS011;60383;46.626;18.866;2023-06-10T10:14:46;2.65;;;2.42;;
58071;SDS011;60383;46.626;18.866;2023-06-10T10:17:13;2.90;;;2.60;;
58071;SDS011;60383;46.626;18.866;2023-06-10T10:19:43;3.00;;;2.60;;
58071;SDS011;60383;46.626;18.866;2023-06-10T10:22:15;3.30;;;2.78;;
58071;SDS011;60383;46.626;18.866;2023-06-10T10:24:49;3.53;;;2.90;;
58071;SDS011;60383;46.626;18.866;2023-06-10T10:27:40;3.47;;;2.78;;
58071;SDS011;60383;46.626;18.866;2023-06-10T10:30:08;3.13;;;2.83;;
58071;SDS011;60383;46.626;18.866;2023-06-10T10:32:43;2.80;;;2.38;;
58071;SDS011;60383;46.626;18.866;2023-06-10T10:37:44;2.55;;;2.35;;
58071;SDS011;60383;46.626;18.866;2023-06-10T10:40:11;2.05;;;1.85;;
58071;SDS011;60383;46.626;18.866;2023-06-10T10:42:38;2.63;;;1.90;;
58071;SDS011;60383;46.626;18.866;2023-06-10T10:45:05;2.90;;;1.90;;
58071;SDS011;60383;46.626;18.866;2023-06-10T10:47:32;2.10;;;1.90;;
58071;SDS011;60383;46.626;18.866;2023-06-10T10:50:00;1.95;;;1.73;;
58071;SDS011;60383;46.626;18.866;2023-06-10T10:52:26;2.05;;;1.60;;
58071;SDS011;60383;46.626;18.866;2023-06-10T10:55:14;2.97;;;2.00;;
58071;SDS011;60383;46.626;18.866;2023-06-10T10:57:40;2.20;;;2.00;;
58071;SDS011;60383;46.626;18.866;2023-06-10T11:00:05;2.58;;;2.10;;
58071;SDS011;60383;46.626;18.866;2023-06-10T11:05:04;1.90;;;1.67;;
58071;SDS011;60383;46.626;18.866;2023-06-10T11:07:34;2.05;;;1.85;;
58071;SDS011;60383;46.626;18.866;2023-06-10T11:10:10;2.25;;;1.83;;
58071;SDS011;60383;46.626;18.866;2023-06-10T11:12:40;2.25;;;1.88;;
58071;SDS011;60383;46.626;18.866;2023-06-10T11:31:23;4.57;;;3.40;;
58071;SDS011;60383;46.626;18.866;2023-06-10T11:34:00;5.22;;;3.95;;
58071;SDS011;60383;46.626;18.866;2023-06-10T11:36:30;5.35;;;4.60;;
58071;SDS011;60383;46.626;18.866;2023-06-10T11:38:57;4.55;;;3.65;;
58071;SDS011;60383;46.626;18.866;2023-06-10T11:41:26;4.85;;;3.97;;
58071;SDS011;60383;46.626;18.866;2023-06-10T11:43:54;5.22;;;3.90;;
58071;SDS011;60383;46.626;18.866;2023-06-10T11:46:23;5.05;;;4.13;;
58071;SDS011;60383;46.626;18.866;2023-06-10T11:48:52;5.45;;;3.75;;
58071;SDS011;60383;46.626;18.866;2023-06-10T11:51:22;3.85;;;3.03;;
58071;SDS011;60383;46.626;18.866;2023-06-10T11:53:50;3.70;;;3.00;;
58071;SDS011;60383;46.626;18.866;2023-06-10T11:56:19;3.30;;;2.70;;
58071;SDS011;60383;46.626;18.866;2023-06-10T11:58:58;2.25;;;2.05;;
58071;SDS011;60383;46.626;18.866;2023-06-10T12:01:29;2.50;;;2.30;;
58071;SDS011;60383;46.626;18.866;2023-06-10T12:04:17;3.10;;;2.50;;
58071;SDS011;60383;46.626;18.866;2023-06-10T12:09:17;3.08;;;2.70;;
58071;SDS011;60383;46.626;18.866;2023-06-10T12:11:48;3.00;;;2.70;;
58071;SDS011;60383;46.626;18.866;2023-06-10T12:14:15;3.38;;;3.00;;
58071;SDS011;60383;46.626;18.866;2023-06-10T12:16:47;4.07;;;2.50;;
58071;SDS011;60383;46.626;18.866;2023-06-10T12:19:14;3.08;;;2.20;;
58071;SDS011;60383;46.626;18.866;2023-06-10T12:21:40;2.85;;;2.25;;
58071;SDS011;60383;46.626;18.866;2023-06-10T12:24:09;2.10;;;1.90;;
58071;SDS011;60383;46.626;18.866;2023-06-10T12:29:20;1.70;;;1.60;;
58071;SDS011;60383;46.626;18.866;2023-06-10T12:34:19;2.17;;;1.80;;
58071;SDS011;60383;46.626;18.866;2023-06-10T12:36:49;2.13;;;1.85;;
58071;SDS011;60383;46.626;18.866;2023-06-10T12:39:14;1.98;;;1.80;;
58071;SDS011;60383;46.626;18.866;2023-06-10T12:41:40;1.70;;;1.60;;
58071;SDS011;60383;46.626;18.866;2023-06-10T12:44:05;2.03;;;1.83;;
58071;SDS011;60383;46.626;18.866;2023-06-10T12:46:36;2.63;;;2.08;;
58071;SDS011;60383;46.626;18.866;2023-06-10T12:49:02;2.40;;;2.20;;
58071;SDS011;60383;46.626;18.866;2023-06-10T12:51:27;2.17;;;1.98;;
58071;SDS011;60383;46.626;18.866;2023-06-10T12:53:53;2.97;;;2.50;;
58071;SDS011;60383;46.626;18.866;2023-06-10T12:56:18;2.63;;;2.10;;
58071;SDS011;60383;46.626;18.866;2023-06-10T12:58:44;3.30;;;2.10;;
58071;SDS011;60383;46.626;18.866;2023-06-10T13:01:09;1.73;;;1.60;;
58071;SDS011;60383;46.626;18.866;2023-06-10T13:03:35;3.03;;;1.98;;
58071;SDS011;60383;46.626;18.866;2023-06-10T13:06:01;1.90;;;1.80;;
58071;SDS011;60383;46.626;18.866;2023-06-10T13:08:27;2.55;;;1.70;;
58071;SDS011;60383;46.626;18.866;2023-06-10T13:10:52;1.80;;;1.70;;
58071;SDS011;60383;46.626;18.866;2023-06-10T13:13:18;2.53;;;2.20;;
58071;SDS011;60383;46.626;18.866;2023-06-10T13:15:49;2.20;;;2.00;;
58071;SDS011;60383;46.626;18.866;2023-06-10T13:18:15;2.65;;;2.10;;
58071;SDS011;60383;46.626;18.866;2023-06-10T13:20:42;3.30;;;2.00;;
58071;SDS011;60383;46.626;18.866;2023-06-10T13:23:08;2.08;;;1.83;;
58071;SDS011;60383;46.626;18.866;2023-06-10T13:25:34;2.47;;;2.00;;
58071;SDS011;60383;46.626;18.866;2023-06-10T13:27:59;2.10;;;1.90;;
58071;SDS011;60383;46.626;18.866;2023-06-10T13:30:25;1.90;;;1.80;;
58071;SDS011;60383;46.626;18.866;2023-06-10T13:32:51;2.10;;;1.90;;
58071;SDS011;60383;46.626;18.866;2023-06-10T13:35:17;2.00;;;1.80;;
58071;SDS011;60383;46.626;18.866;2023-06-10T13:37:42;1.85;;;1.73;;
58071;SDS011;60383;46.626;18.866;2023-06-10T13:40:08;1.40;;;1.30;;
58071;SDS011;60383;46.626;18.866;2023-06-10T13:42:34;2.03;;;1.80;;
58071;SDS011;60383;46.626;18.866;2023-06-10T13:45:01;1.98;;;1.77;;
58071;SDS011;60383;46.626;18.866;2023-06-10T13:47:27;1.95;;;1.85;;
58071;SDS011;60383;46.626;18.866;2023-06-10T13:49:53;2.05;;;1.85;;
58071;SDS011;60383;46.626;18.866;2023-06-10T13:52:18;2.28;;;2.05;;
58071;SDS011;60383;46.626;18.866;2023-06-10T13:54:44;2.50;;;2.30;;
58071;SDS011;60383;46.626;18.866;2023-06-10T13:57:10;2.65;;;2.42;;
58071;SDS011;60383;46.626;18.866;2023-06-10T13:59:35;2.63;;;2.42;;
58071;SDS011;60383;46.626;18.866;2023-06-10T14:02:01;3.03;;;2.60;;
58071;SDS011;60383;46.626;18.866;2023-06-10T14:04:26;3.05;;;2.50;;
58071;SDS011;60383;46.626;18.866;2023-06-10T14:06:52;3.85;;;2.70;;
58071;SDS011;60383;46.626;18.866;2023-06-10T14:09:18;2.33;;;2.10;;
58071;SDS011;60383;46.626;18.866;2023-06-10T14:11:44;2.75;;;2.20;;
58071;SDS011;60383;46.626;18.866;2023-06-10T14:14:09;4.55;;;2.90;;
58071;SDS011;60383;46.626;18.866;2023-06-10T14:16:35;3.22;;;2.70;;
58071;SDS011;60383;46.626;18.866;2023-06-10T14:19:01;3.88;;;2.92;;
58071;SDS011;60383;46.626;18.866;2023-06-10T14:21:26;5.80;;;3.00;;
58071;SDS011;60383;46.626;18.866;2023-06-10T14:23:52;4.20;;;2.88;;
58071;SDS011;60383;46.626;18.866;2023-06-10T14:26:18;4.07;;;3.20;;
58071;SDS011;60383;46.626;18.866;2023-06-10T14:28:46;3.38;;;2.97;;
58071;SDS011;60383;46.626;18.866;2023-06-10T14:31:12;3.25;;;2.70;;
58071;SDS011;60383;46.626;18.866;2023-06-10T14:33:37;3.58;;;3.13;;
58071;SDS011;60383;46.626;18.866;2023-06-10T14:36:04;3.35;;;2.92;;
58071;SDS011;60383;46.626;18.866;2023-06-10T14:38:30;3.78;;;3.33;;
58071;SDS011;60383;46.626;18.866;2023-06-10T14:40:55;4.60;;;3.42;;
58071;SDS011;60383;46.626;18.866;2023-06-10T14:43:21;4.13;;;3.50;;
58071;SDS011;60383;46.626;18.866;2023-06-10T14:45:46;4.47;;;3.40;;
58071;SDS011;60383;46.626;18.866;2023-06-10T14:48:12;4.10;;;3.50;;
58071;SDS011;60383;46.626;18.866;2023-06-10T14:50:38;4.93;;;4.18;;
58071;SDS011;60383;46.626;18.866;2023-06-10T14:53:05;4.97;;;3.70;;
58071;SDS011;60383;46.626;18.866;2023-06-10T14:55:30;4.78;;;3.75;;
58071;SDS011;60383;46.626;18.866;2023-06-10T14:57:56;5.65;;;4.07;;
58071;SDS011;60383;46.626;18.866;2023-06-10T15:00:22;4.45;;;3.92;;